createdAt,value
2023-01-13T00:01:34.103Z,69.68
2023-01-13T00:04:02.529Z,69.46
2023-01-13T00:06:30.980Z,69.21
2023-01-13T00:08:59.425Z,68.90
2023-01-13T00:11:27.993Z,69.32
2023-01-13T00:13:57.177Z,69.58
2023-01-13T00:16:25.614Z,69.33
2023-01-13T00:18:55.439Z,69.26
2023-01-13T00:21:25.853Z,69.55
2023-01-13T00:23:55.516Z,69.80
2023-01-13T00:26:27.289Z,69.93
2023-01-13T00:28:58.945Z,69.62
2023-01-13T00:31:28.319Z,69.71
2023-01-13T00:34:00.443Z,70.40
2023-01-13T00:36:29.477Z,70.15
2023-01-13T00:38:58.052Z,69.96
2023-01-13T00:41:27.963Z,70.46
2023-01-13T00:43:55.404Z,70.20
2023-01-13T00:46:24.009Z,70.43
2023-01-13T00:48:52.960Z,70.78
2023-01-13T00:51:23.120Z,70.66
2023-01-13T00:53:52.978Z,70.60
2023-01-13T00:56:39.125Z,70.40
2023-01-13T00:59:11.063Z,71.22
2023-01-13T01:01:39.731Z,71.38
2023-01-13T01:04:08.535Z,71.82
2023-01-13T01:06:38.800Z,72.71
2023-01-13T01:09:07.650Z,73.29
2023-01-13T01:11:36.588Z,72.86
2023-01-13T01:14:06.962Z,73.22
2023-01-13T01:16:35.952Z,72.97
2023-01-13T01:19:05.209Z,72.99
2023-01-13T01:21:34.213Z,72.20
2023-01-13T01:24:05.538Z,72.54
2023-01-13T01:26:34.248Z,72.41
2023-01-13T01:29:03.242Z,72.58
2023-01-13T01:31:33.808Z,72.33
2023-01-13T01:34:03.114Z,72.43
2023-01-13T01:36:31.842Z,72.38
2023-01-13T01:39:00.956Z,72.41
2023-01-13T01:41:33.379Z,72.84
2023-01-13T01:44:07.234Z,73.21
2023-01-13T01:46:38.872Z,72.45
2023-01-13T01:49:15.141Z,72.78
2023-01-13T01:51:51.396Z,73.63
2023-01-13T01:54:25.611Z,73.17
2023-01-13T01:56:56.122Z,73.58
2023-01-13T01:59:26.822Z,73.86
2023-01-13T02:01:55.520Z,74.23
2023-01-13T02:04:31.028Z,74.16
2023-01-13T02:07:00.035Z,73.48
2023-01-13T02:09:29.056Z,74.10
2023-01-13T02:12:18.131Z,73.63
2023-01-13T02:14:46.917Z,74.08
2023-01-13T02:17:34.019Z,73.99
2023-01-13T02:20:46.213Z,74.34
2023-01-13T02:24:13.505Z,74.06
2023-01-13T02:27:18.498Z,74.10
2023-01-13T02:30:27.130Z,73.70
2023-01-13T02:33:12.108Z,73.93
2023-01-13T02:35:51.891Z,74.11
2023-01-13T02:38:27.929Z,74.30
2023-01-13T02:41:21.303Z,74.80
2023-01-13T02:44:09.111Z,75.13
2023-01-13T02:46:59.162Z,75.49
2023-01-13T02:49:37.790Z,75.47
2023-01-13T02:52:13.458Z,75.67
2023-01-13T02:54:46.580Z,75.66
2023-01-13T02:57:18.721Z,75.46
2023-01-13T02:59:47.647Z,75.97
2023-01-13T03:02:21.383Z,76.10
2023-01-13T03:04:54.724Z,75.58
2023-01-13T03:07:57.086Z,75.90
2023-01-13T03:10:52.486Z,75.57
2023-01-13T03:13:55.588Z,75.40
2023-01-13T03:16:35.341Z,75.60
2023-01-13T03:19:29.914Z,75.64
2023-01-13T03:22:06.486Z,75.20
2023-01-13T03:24:40.345Z,75.37
2023-01-13T03:27:19.331Z,75.44
2023-01-13T03:29:51.963Z,75.66
2023-01-13T03:32:27.058Z,75.22
2023-01-13T03:35:04.797Z,75.15
2023-01-13T03:37:37.101Z,75.43
2023-01-13T03:40:12.567Z,75.66
2023-01-13T03:43:05.130Z,75.91
2023-01-13T03:45:35.893Z,75.98
2023-01-13T03:48:10.080Z,75.80
2023-01-13T03:50:46.334Z,75.69
2023-01-13T03:53:20.001Z,76.00
2023-01-13T03:55:53.561Z,76.21
2023-01-13T03:58:25.479Z,76.57
2023-01-13T04:00:58.511Z,77.16
2023-01-13T04:03:34.440Z,77.66
2023-01-13T04:06:14.715Z,77.61
2023-01-13T04:08:51.181Z,77.66
2023-01-13T04:11:27.702Z,78.08
2023-01-13T04:13:57.795Z,78.11
2023-01-13T04:16:26.487Z,78.20
2023-01-13T04:18:54.884Z,78.93
2023-01-13T04:21:25.093Z,78.94
2023-01-13T04:23:54.034Z,78.97
2023-01-13T04:26:23.533Z,78.55
2023-01-13T04:28:54.717Z,78.61
2023-01-13T04:31:23.239Z,78.52
2023-01-13T04:33:51.735Z,78.31
2023-01-13T04:36:25.155Z,78.84
2023-01-13T04:38:55.466Z,78.49
2023-01-13T04:41:24.110Z,78.57
2023-01-13T04:43:52.509Z,79.06
2023-01-13T04:46:20.892Z,78.59
2023-01-13T04:48:49.286Z,78.76
2023-01-13T04:51:18.346Z,78.93
2023-01-13T04:53:46.889Z,78.89
2023-01-13T04:56:16.534Z,78.66
2023-01-13T04:58:44.939Z,78.88
2023-01-13T05:01:13.682Z,78.95
2023-01-13T05:03:42.134Z,78.64
2023-01-13T05:06:10.489Z,78.94
2023-01-13T05:08:38.808Z,78.86
2023-01-13T05:11:27.724Z,78.49
2023-01-13T05:14:15.001Z,78.84
2023-01-13T05:17:01.478Z,78.74
2023-01-13T05:19:31.752Z,78.92
2023-01-13T05:22:18.266Z,78.67
2023-01-13T05:25:04.360Z,79.24
2023-01-13T05:27:33.653Z,79.66
2023-01-13T05:30:03.519Z,79.51
2023-01-13T05:32:31.871Z,79.25
2023-01-13T05:35:00.243Z,79.10
2023-01-13T05:37:29.100Z,79.31
2023-01-13T05:40:14.763Z,79.28
2023-01-13T05:43:00.299Z,79.68
2023-01-13T05:45:31.967Z,80.02
2023-01-13T05:48:00.513Z,79.97
2023-01-13T05:50:28.831Z,80.46
2023-01-13T05:52:57.146Z,80.89
2023-01-13T05:55:25.482Z,81.15
2023-01-13T05:57:53.852Z,80.74
2023-01-13T06:00:22.959Z,81.43
2023-01-13T06:02:53.449Z,81.30
2023-01-13T06:05:21.806Z,81.48
2023-01-13T06:07:50.862Z,81.82
2023-01-13T06:10:19.536Z,81.78
2023-01-13T06:12:47.927Z,81.98
2023-01-13T06:15:16.446Z,82.56
2023-01-13T06:17:44.847Z,82.07
2023-01-13T06:20:15.860Z,82.24
2023-01-13T06:22:47.563Z,82.27
2023-01-13T06:25:26.046Z,81.74
2023-01-13T06:27:55.565Z,82.69
2023-01-13T06:30:24.166Z,82.15
2023-01-13T06:32:55.685Z,82.70
2023-01-13T06:35:30.749Z,82.12
2023-01-13T06:38:02.090Z,82.27
2023-01-13T06:40:30.901Z,82.37
2023-01-13T06:43:18.375Z,82.62
2023-01-13T06:45:51.345Z,82.23
2023-01-13T06:48:23.345Z,82.29
2023-01-13T06:50:53.130Z,82.29
2023-01-13T06:53:21.820Z,82.06
2023-01-13T06:55:50.232Z,81.82
2023-01-13T06:58:18.812Z,81.49
2023-01-13T07:00:51.359Z,81.48
2023-01-13T07:03:21.521Z,81.27
2023-01-13T07:05:56.466Z,81.39
2023-01-13T07:08:25.578Z,81.54
2023-01-13T07:10:54.324Z,81.60
2023-01-13T07:13:40.160Z,81.56
2023-01-13T07:16:10.284Z,81.50
2023-01-13T07:18:39.380Z,81.35
2023-01-13T07:21:12.087Z,80.91
2023-01-13T07:23:42.709Z,81.39
2023-01-13T07:26:12.088Z,80.96
2023-01-13T07:28:41.704Z,81.26
2023-01-13T07:31:17.277Z,80.92
2023-01-13T07:33:46.081Z,80.48
2023-01-13T07:36:19.632Z,80.90
2023-01-13T07:38:48.094Z,80.98
2023-01-13T07:41:34.539Z,80.80
2023-01-13T07:44:06.279Z,81.18
2023-01-13T07:46:35.031Z,80.23
2023-01-13T07:49:03.558Z,80.26
2023-01-13T07:51:36.303Z,80.91
2023-01-13T07:54:04.954Z,80.51
2023-01-13T07:56:33.866Z,80.40
2023-01-13T07:59:02.720Z,80.62
2023-01-13T08:01:31.982Z,81.15
2023-01-13T08:04:00.581Z,80.22
2023-01-13T08:06:29.130Z,81.16
2023-01-13T08:09:00.041Z,80.67
2023-01-13T08:11:28.525Z,81.12
2023-01-13T08:13:59.255Z,80.64
2023-01-13T08:16:27.813Z,79.90
2023-01-13T08:18:59.494Z,80.20
2023-01-13T08:21:27.962Z,81.25
2023-01-13T08:23:56.393Z,80.40
2023-01-13T08:26:26.397Z,80.21
2023-01-13T08:28:54.939Z,80.48
2023-01-13T08:31:23.440Z,81.15
2023-01-13T08:33:51.878Z,80.17
2023-01-13T08:36:20.697Z,80.28
2023-01-13T08:38:49.248Z,80.47
2023-01-13T08:41:39.954Z,80.32
2023-01-13T08:44:10.130Z,80.34
2023-01-13T08:46:38.896Z,80.54
2023-01-13T08:49:07.322Z,80.61
2023-01-13T08:51:35.794Z,80.68
2023-01-13T08:54:04.787Z,80.40
2023-01-13T08:56:35.546Z,79.40
2023-01-13T08:59:04.589Z,79.10
2023-01-13T09:01:34.729Z,80.02
2023-01-13T09:04:03.243Z,79.36
2023-01-13T09:06:32.154Z,79.57
2023-01-13T09:09:02.488Z,78.94
2023-01-13T09:11:52.885Z,78.77
2023-01-13T09:14:22.930Z,77.85
2023-01-13T09:16:52.913Z,77.68
2023-01-13T09:19:21.416Z,77.94
2023-01-13T09:21:49.819Z,77.89
2023-01-13T09:24:18.175Z,78.36
2023-01-13T09:26:47.012Z,77.07
2023-01-13T09:29:15.975Z,76.82
2023-01-13T09:31:45.004Z,77.32
2023-01-13T09:34:35.565Z,77.07
2023-01-13T09:37:04.960Z,76.62
2023-01-13T09:39:34.043Z,76.36
2023-01-13T09:42:30.872Z,76.63
2023-01-13T09:45:05.690Z,76.52
2023-01-13T09:47:41.090Z,75.46
2023-01-13T09:50:26.044Z,75.59
2023-01-13T09:52:54.800Z,75.30
2023-01-13T09:55:31.811Z,75.34
2023-01-13T09:58:02.230Z,75.17
2023-01-13T10:00:40.305Z,74.16
2023-01-13T10:03:24.924Z,74.67
2023-01-13T10:06:16.712Z,75.03
2023-01-13T10:08:46.987Z,74.30
2023-01-13T10:11:35.893Z,74.48
2023-01-13T10:14:14.072Z,74.91
2023-01-13T10:16:52.527Z,73.83
2023-01-13T10:19:27.641Z,73.43
2023-01-13T10:22:31.490Z,73.63
2023-01-13T10:25:25.666Z,73.31
2023-01-13T10:27:57.356Z,73.12
2023-01-13T10:30:31.505Z,73.31
2023-01-13T10:33:03.276Z,73.31
2023-01-13T10:35:54.529Z,72.61
2023-01-13T10:38:28.073Z,72.00
2023-01-13T10:41:01.401Z,72.47
2023-01-13T10:43:31.721Z,72.95
2023-01-13T10:46:07.164Z,72.21
2023-01-13T10:48:41.757Z,71.57
2023-01-13T10:51:21.498Z,71.92
2023-01-13T10:53:59.212Z,72.31
2023-01-13T10:56:31.659Z,71.80
2023-01-13T10:59:18.645Z,71.69
2023-01-13T11:02:01.224Z,71.19
2023-01-13T11:04:36.023Z,71.12
2023-01-13T11:07:07.258Z,71.19
2023-01-13T11:09:37.131Z,71.01
2023-01-13T11:12:05.905Z,70.63
2023-01-13T11:14:41.399Z,70.36
2023-01-13T11:17:28.732Z,70.93
2023-01-13T11:20:06.126Z,70.13
2023-01-13T11:22:40.234Z,69.84
2023-01-13T11:25:19.271Z,70.13
2023-01-13T11:27:55.634Z,70.48
2023-01-13T11:30:34.879Z,70.14
2023-01-13T11:33:28.366Z,70.36
2023-01-13T11:36:09.196Z,69.09
2023-01-13T11:38:50.223Z,68.85
2023-01-13T11:41:44.442Z,70.19
2023-01-13T11:44:21.477Z,69.19
2023-01-13T11:46:51.605Z,69.38
2023-01-13T11:49:27.691Z,69.43
2023-01-13T11:52:02.233Z,69.54
2023-01-13T11:55:07.924Z,69.48
2023-01-13T11:57:55.701Z,69.34
2023-01-13T12:00:37.659Z,68.80
2023-01-13T12:03:28.163Z,68.81
2023-01-13T12:06:24.901Z,68.80
2023-01-13T12:09:29.313Z,68.58
2023-01-13T12:12:23.467Z,68.64
2023-01-13T12:15:32.952Z,69.18
2023-01-13T12:18:37.302Z,69.16
2023-01-13T12:21:20.662Z,68.60
2023-01-13T12:24:00.988Z,69.09
2023-01-13T12:26:34.282Z,69.66
2023-01-13T12:29:08.562Z,68.63
2023-01-13T12:31:41.650Z,69.18
2023-01-13T12:34:30.486Z,69.10
2023-01-13T12:37:13.176Z,69.69
2023-01-13T12:39:52.928Z,68.88
2023-01-13T12:42:46.437Z,70.13
2023-01-13T12:45:29.119Z,70.62
2023-01-13T12:47:59.929Z,69.49
2023-01-13T12:51:01.707Z,69.84
2023-01-13T12:53:38.569Z,69.77
2023-01-13T12:56:42.122Z,69.13
2023-01-13T12:59:37.955Z,69.38
2023-01-13T13:02:36.127Z,69.55
2023-01-13T13:05:51.300Z,68.95
2023-01-13T13:08:25.916Z,69.33
2023-01-13T13:11:39.310Z,68.73
2023-01-13T13:14:11.347Z,68.93
2023-01-13T13:17:01.069Z,68.99
2023-01-13T13:19:47.355Z,68.79
2023-01-13T13:22:45.614Z,69.23
2023-01-13T13:25:27.680Z,68.92
2023-01-13T13:28:22.750Z,68.61
2023-01-13T13:31:20.892Z,68.53
2023-01-13T13:34:26.167Z,69.46
2023-01-13T13:37:33.154Z,69.14
2023-01-13T13:40:29.658Z,69.49
2023-01-13T13:43:17.210Z,69.31
2023-01-13T13:46:10.472Z,68.79
2023-01-13T13:48:39.217Z,69.38
2023-01-13T13:51:29.378Z,68.93
2023-01-13T13:53:59.396Z,69.01
2023-01-13T13:56:41.787Z,69.56
2023-01-13T13:59:12.741Z,69.64
2023-01-13T14:01:45.297Z,68.67
2023-01-13T14:04:19.889Z,69.75
2023-01-13T14:06:57.489Z,69.29
2023-01-13T14:09:29.821Z,69.74
2023-01-13T14:12:02.417Z,69.59
2023-01-13T14:14:31.172Z,69.55
2023-01-13T14:16:59.775Z,69.21
2023-01-13T14:19:35.511Z,69.67
2023-01-13T14:22:05.995Z,69.07
2023-01-13T14:24:35.205Z,69.78
2023-01-13T14:27:17.123Z,69.53
2023-01-13T14:29:46.198Z,69.96
2023-01-13T14:32:20.867Z,70.24
2023-01-13T14:34:49.659Z,70.18
2023-01-13T14:37:34.315Z,70.34
2023-01-13T14:40:02.835Z,69.94
2023-01-13T14:42:35.530Z,70.85
2023-01-13T14:45:04.574Z,70.61
2023-01-13T14:47:34.821Z,71.23
2023-01-13T14:50:08.473Z,70.16
2023-01-13T14:52:47.656Z,70.47
2023-01-13T14:55:30.559Z,70.02
2023-01-13T14:58:29.363Z,70.78
2023-01-13T15:01:31.221Z,71.06
2023-01-13T15:04:17.717Z,70.44
2023-01-13T15:06:50.501Z,70.42
2023-01-13T15:09:26.648Z,70.41
2023-01-13T15:11:56.421Z,70.71
2023-01-13T15:14:31.364Z,70.57
2023-01-13T15:16:59.768Z,70.03
2023-01-13T15:19:28.213Z,70.24
2023-01-13T15:21:56.764Z,70.16
2023-01-13T15:24:25.270Z,70.60
2023-01-13T15:26:53.619Z,69.94
2023-01-13T15:29:24.269Z,70.30
2023-01-13T15:31:54.205Z,70.17
2023-01-13T15:34:22.776Z,70.53
2023-01-13T15:36:51.124Z,70.74
2023-01-13T15:39:19.595Z,70.74
2023-01-13T15:42:05.359Z,70.22
2023-01-13T15:44:51.281Z,70.41
2023-01-13T15:47:25.967Z,69.76
2023-01-13T15:49:55.271Z,70.57
2023-01-13T15:52:26.495Z,70.57
2023-01-13T15:54:55.815Z,69.46
2023-01-13T15:57:26.181Z,69.93
2023-01-13T15:59:58.425Z,69.68
2023-01-13T16:02:29.828Z,70.04
2023-01-13T16:04:58.379Z,69.91
2023-01-13T16:07:27.339Z,69.18
2023-01-13T16:09:55.862Z,69.44
2023-01-13T16:12:24.272Z,69.35
2023-01-13T16:14:52.682Z,69.72
2023-01-13T16:17:23.952Z,69.38
2023-01-13T16:19:53.800Z,68.47
2023-01-13T16:22:22.266Z,69.37
2023-01-13T16:24:50.705Z,69.14
2023-01-13T16:27:21.562Z,69.57
2023-01-13T16:29:51.809Z,69.32
2023-01-13T16:32:21.064Z,68.64
2023-01-13T16:34:49.694Z,69.16
2023-01-13T16:37:24.744Z,69.28
2023-01-13T16:39:54.139Z,68.89
2023-01-13T16:42:22.924Z,68.79
2023-01-13T16:44:52.890Z,68.97
2023-01-13T16:47:22.851Z,68.54
2023-01-13T16:49:51.487Z,69.39
2023-01-13T16:52:21.231Z,69.36
2023-01-13T16:54:49.667Z,68.66
2023-01-13T16:57:18.041Z,68.99
2023-01-13T16:59:46.454Z,69.58
2023-01-13T17:02:19.731Z,68.82
2023-01-13T17:04:49.222Z,68.56
2023-01-13T17:07:19.977Z,68.78
2023-01-13T17:09:48.429Z,68.31
2023-01-13T17:12:16.804Z,68.63
2023-01-13T17:14:45.278Z,68.93
2023-01-13T17:17:23.691Z,68.73
2023-01-13T17:19:52.815Z,69.19
2023-01-13T17:22:23.289Z,68.94
2023-01-13T17:24:51.674Z,68.73
2023-01-13T17:27:21.329Z,68.87
2023-01-13T17:29:49.823Z,68.60
2023-01-13T17:32:19.010Z,69.18
2023-01-13T17:34:47.706Z,68.71
2023-01-13T17:37:16.690Z,69.04
2023-01-13T17:39:48.445Z,69.36
2023-01-13T17:42:17.475Z,69.43
2023-01-13T17:44:46.883Z,69.54
2023-01-13T17:47:15.569Z,69.29
2023-01-13T17:49:43.900Z,69.85
2023-01-13T17:52:12.297Z,70.02
2023-01-13T17:54:43.183Z,71.83
2023-01-13T17:57:13.135Z,72.66
2023-01-13T17:59:42.008Z,73.88
2023-01-13T18:02:13.729Z,74.14
2023-01-13T18:04:42.806Z,74.31
2023-01-13T18:07:11.431Z,74.63
2023-01-13T18:09:39.773Z,74.81
2023-01-13T18:12:08.687Z,74.84
2023-01-13T18:14:38.357Z,74.44
2023-01-13T18:17:06.870Z,74.10
2023-01-13T18:19:53.152Z,73.99
2023-01-13T18:22:38.899Z,73.81
2023-01-13T18:25:29.661Z,73.62
2023-01-13T18:27:58.854Z,73.93
2023-01-13T18:30:30.479Z,74.35
2023-01-13T18:32:59.636Z,74.26
2023-01-13T18:35:29.589Z,74.70
2023-01-13T18:37:58.052Z,74.65
2023-01-13T18:40:26.511Z,74.63
2023-01-13T18:42:54.962Z,75.02
2023-01-13T18:45:26.294Z,74.76
2023-01-13T18:47:59.350Z,75.44
2023-01-13T18:50:28.588Z,74.69
2023-01-13T18:52:57.372Z,75.01
2023-01-13T18:55:29.559Z,74.97
2023-01-13T18:58:00.942Z,75.39
2023-01-13T19:00:36.416Z,75.72
2023-01-13T19:05:40.048Z,75.27
2023-01-13T19:08:08.699Z,75.64
2023-01-13T19:10:40.009Z,75.76
2023-01-13T19:13:08.698Z,74.79
2023-01-13T19:15:38.264Z,74.85
2023-01-13T19:18:10.440Z,75.24
2023-01-13T19:20:40.920Z,75.46
2023-01-13T19:23:09.368Z,75.57
2023-01-13T19:25:38.980Z,75.07
2023-01-13T19:28:07.362Z,75.17
2023-01-13T19:30:35.737Z,74.81
2023-01-13T19:33:04.143Z,74.61
2023-01-13T19:35:33.908Z,75.35
2023-01-13T19:38:02.255Z,75.33
2023-01-13T19:40:30.626Z,75.13
2023-01-13T19:43:16.225Z,74.90
2023-01-13T19:45:45.011Z,74.17
2023-01-13T19:48:16.198Z,74.70
2023-01-13T19:50:48.094Z,74.66
2023-01-13T19:53:18.715Z,74.42
2023-01-13T19:55:48.917Z,74.76
2023-01-13T19:58:18.828Z,74.85
2023-01-13T20:00:48.705Z,74.80
2023-01-13T20:03:18.742Z,74.54
2023-01-13T20:05:48.850Z,74.48
2023-01-13T20:08:17.693Z,74.35
2023-01-13T20:10:47.042Z,74.27
2023-01-13T20:13:16.057Z,75.17
2023-01-13T20:15:45.049Z,74.18
2023-01-13T20:18:13.432Z,74.01
2023-01-13T20:20:41.983Z,74.08
2023-01-13T20:23:12.444Z,74.96
2023-01-13T20:25:43.807Z,73.82
2023-01-13T20:28:12.214Z,73.35
2023-01-13T20:30:41.756Z,74.20
2023-01-13T20:33:10.059Z,73.93
2023-01-13T20:35:38.466Z,74.04
2023-01-13T20:38:08.316Z,73.87
2023-01-13T20:40:38.623Z,74.24
2023-01-13T20:43:06.385Z,73.90
2023-01-13T20:45:35.173Z,74.19
2023-01-13T20:48:03.513Z,73.41
2023-01-13T20:50:31.827Z,73.60
2023-01-13T20:53:00.169Z,73.77
2023-01-13T20:55:28.518Z,73.28
2023-01-13T20:57:58.198Z,73.80
2023-01-13T21:00:28.403Z,74.32
2023-01-13T21:02:56.782Z,73.99
2023-01-13T21:05:25.144Z,73.71
2023-01-13T21:07:53.591Z,73.57
2023-01-13T21:10:21.974Z,73.58
2023-01-13T21:13:07.797Z,74.20
2023-01-13T21:15:37.535Z,73.55
2023-01-13T21:18:23.479Z,73.69
2023-01-13T21:21:11.394Z,73.84
2023-01-13T21:23:41.432Z,73.91
2023-01-13T21:26:10.914Z,73.17
2023-01-13T21:28:39.420Z,73.87
2023-01-13T21:31:10.686Z,73.61
2023-01-13T21:33:39.863Z,73.89
2023-01-13T21:36:09.356Z,73.81
2023-01-13T21:38:37.842Z,73.79
2023-01-13T21:41:09.102Z,74.20
2023-01-13T21:43:56.031Z,73.70
2023-01-13T21:46:43.983Z,74.74
2023-01-13T21:49:12.648Z,74.05
2023-01-13T21:51:41.057Z,73.83
2023-01-13T21:54:09.522Z,73.54
2023-01-13T21:56:38.269Z,74.02
2023-01-13T21:59:06.751Z,73.69
2023-01-13T22:01:36.615Z,74.78
2023-01-13T22:04:24.802Z,73.70
2023-01-13T22:06:53.124Z,74.30
2023-01-13T22:09:21.475Z,74.20
2023-01-13T22:11:49.768Z,74.16
2023-01-13T22:14:18.125Z,74.85
2023-01-13T22:16:49.793Z,74.40
2023-01-13T22:19:18.740Z,73.61
2023-01-13T22:21:47.089Z,73.78
2023-01-13T22:24:15.724Z,73.37
2023-01-13T22:26:44.098Z,74.28
2023-01-13T22:29:12.477Z,73.98
2023-01-13T22:31:40.879Z,73.99
2023-01-13T22:34:13.927Z,73.34
2023-01-13T22:36:42.326Z,74.70
2023-01-13T22:39:12.305Z,73.92
2023-01-13T22:41:40.632Z,74.41
2023-01-13T22:44:08.984Z,73.91
2023-01-13T22:46:37.420Z,74.70
2023-01-13T22:49:05.863Z,74.66
2023-01-13T22:51:35.601Z,74.78
2023-01-13T22:54:03.991Z,74.11
2023-01-13T22:56:32.876Z,74.95
2023-01-13T22:59:03.475Z,74.64
2023-01-13T23:01:34.227Z,74.15
2023-01-13T23:04:03.611Z,74.20
2023-01-13T23:06:35.220Z,75.14
2023-01-13T23:09:03.616Z,74.53
2023-01-13T23:11:32.397Z,75.13
2023-01-13T23:14:03.033Z,75.31
2023-01-13T23:16:34.611Z,74.90
2023-01-13T23:19:03.280Z,75.05
2023-01-13T23:21:36.185Z,74.51
2023-01-13T23:24:05.643Z,75.51
2023-01-13T23:26:35.559Z,74.97
2023-01-13T23:29:07.608Z,75.22
2023-01-13T23:31:36.506Z,75.43
2023-01-13T23:34:05.117Z,75.14
2023-01-13T23:36:37.070Z,74.96
2023-01-13T23:39:05.606Z,75.45
2023-01-13T23:41:34.019Z,75.02
2023-01-13T23:44:02.552Z,75.93
2023-01-13T23:46:32.776Z,76.13
2023-01-13T23:49:02.563Z,75.53
2023-01-13T23:51:31.583Z,75.67
2023-01-13T23:54:01.431Z,76.41
2023-01-13T23:56:32.196Z,75.83
2023-01-13T23:59:00.668Z,75.59
